Time;durP1;ratioP1;P1;durP2;ratioP2;P2;SDS_P1;SDS_P2;PMS_P1;PMS_P2;Temp;Humidity;BMP_temperature;BMP_pressure;BME280_temperature;BME280_humidity;BME280_pressure;Samples;Min_cycle;Max_cycle;Signal;HPM_P1;HPM_P2
2021/03/30 00:01:04;;;;;;;9.40;4.93;;;12.50;46.90;;;;;;5054498;28;20017;-72
2021/03/30 00:03:30;;;;;;;9.43;4.30;;;12.50;46.60;;;;;;5053262;28;20028;-72
2021/03/30 00:05:56;;;;;;;8.05;3.72;;;12.40;46.50;;;;;;5054656;28;20045;-71
2021/03/30 00:08:22;;;;;;;7.80;3.83;;;12.40;46.60;;;;;;5054769;28;20056;-71
2021/03/30 00:10:48;;;;;;;8.63;4.75;;;12.40;46.90;;;;;;5054474;28;20100;-71
2021/03/30 00:13:14;;;;;;;10.43;4.38;;;12.30;47.30;;;;;;5054433;28;20033;-71
2021/03/30 00:15:40;;;;;;;8.60;4.53;;;12.30;47.80;;;;;;5054347;28;20094;-72
2021/03/30 00:18:06;;;;;;;16.80;4.85;;;12.30;48.00;;;;;;5054458;28;20068;-72
2021/03/30 00:20:32;;;;;;;9.13;4.93;;;12.30;47.80;;;;;;5054277;28;20457;-71
2021/03/30 00:22:58;;;;;;;12.25;5.03;;;12.30;48.20;;;;;;5054193;28;20061;-71
2021/03/30 00:25:24;;;;;;;8.65;4.18;;;12.20;48.10;;;;;;5052904;28;20028;-71
2021/03/30 00:27:50;;;;;;;9.13;4.03;;;12.20;48.20;;;;;;5054113;28;20024;-72
2021/03/30 00:30:16;;;;;;;6.35;3.80;;;12.20;47.90;;;;;;5054095;28;20017;-72
2021/03/30 00:32:42;;;;;;;4.32;3.00;;;12.30;47.60;;;;;;5053953;28;20466;-72
2021/03/30 00:35:09;;;;;;;6.13;3.38;;;12.20;47.30;;;;;;5052679;28;20036;-71
2021/03/30 00:37:36;;;;;;;7.22;4.10;;;12.20;47.30;;;;;;5051927;28;20149;-72
2021/03/30 00:40:04;;;;;;;8.05;3.78;;;12.10;47.30;;;;;;5052671;28;20406;-72
2021/03/30 00:42:30;;;;;;;7.28;4.15;;;12.10;47.30;;;;;;5052949;28;20098;-71
2021/03/30 00:44:59;;;;;;;9.30;4.57;;;12.00;47.20;;;;;;5053985;28;20017;-71
2021/03/30 00:47:27;;;;;;;7.05;4.13;;;12.00;47.70;;;;;;5053254;28;20021;-71
2021/03/30 00:49:54;;;;;;;8.52;3.70;;;12.00;47.60;;;;;;5051230;28;20045;-71
2021/03/30 00:52:21;;;;;;;6.05;3.50;;;11.90;47.80;;;;;;5052622;28;20112;-71
2021/03/30 00:54:48;;;;;;;5.55;3.33;;;11.90;47.70;;;;;;5052811;28;20027;-71
2021/03/30 00:57:16;;;;;;;6.00;3.72;;;11.80;47.50;;;;;;5052100;28;20027;-72
2021/03/30 00:59:42;;;;;;;8.00;3.33;;;11.80;47.60;;;;;;5053395;28;20024;-71
2021/03/30 01:02:08;;;;;;;6.25;2.97;;;11.70;47.50;;;;;;5053093;28;20025;-71
2021/03/30 01:04:35;;;;;;;5.72;3.50;;;11.70;47.50;;;;;;5053584;28;20021;-71
2021/03/30 01:07:02;;;;;;;7.85;3.60;;;11.70;47.70;;;;;;5051904;28;20028;-71
2021/03/30 01:10:15;;;;;;;8.85;4.13;;;11.60;47.70;;;;;;5053430;28;20028;-72
2021/03/30 01:13:06;;;;;;;9.85;4.15;;;11.60;48.10;;;;;;5053238;28;20108;-71
2021/03/30 01:16:27;;;;;;;5.85;3.78;;;11.50;48.40;;;;;;5053191;28;20103;-71
2021/03/30 01:19:05;;;;;;;8.52;4.00;;;11.50;48.60;;;;;;5041870;28;20037;-72
2021/03/30 01:22:02;;;;;;;13.13;4.35;;;11.50;48.50;;;;;;5051098;28;20029;-71
2021/03/30 01:24:53;;;;;;;6.72;4.20;;;11.40;48.70;;;;;;5048809;28;20036;-71
2021/03/30 01:27:40;;;;;;;5.97;3.60;;;11.40;48.50;;;;;;5070817;28;20547;-71
2021/03/30 01:30:08;;;;;;;5.45;3.58;;;11.30;48.40;;;;;;5070583;28;20032;-71
2021/03/30 01:32:35;;;;;;;8.00;4.47;;;11.30;48.30;;;;;;5062113;28;20440;-71
2021/03/30 01:35:03;;;;;;;5.85;3.60;;;11.30;48.70;;;;;;5050609;28;20040;-72
2021/03/30 01:37:29;;;;;;;9.98;4.22;;;11.20;48.60;;;;;;5050568;28;20063;-71
2021/03/30 01:39:59;;;;;;;6.70;3.67;;;11.20;48.80;;;;;;5050544;28;20146;-71
2021/03/30 01:42:29;;;;;;;9.98;4.53;;;11.20;49.20;;;;;;5033700;28;20044;-71
2021/03/30 01:44:56;;;;;;;9.48;4.68;;;11.20;49.40;;;;;;5050446;28;20029;-71
2021/03/30 01:47:23;;;;;;;7.72;4.40;;;11.20;49.50;;;;;;5050217;28;20024;-72
2021/03/30 01:49:49;;;;;;;8.23;3.78;;;11.10;49.40;;;;;;5050132;28;20033;-72
2021/03/30 01:52:18;;;;;;;7.43;3.90;;;11.10;49.10;;;;;;5033653;28;20501;-71
2021/03/30 01:54:47;;;;;;;8.75;5.25;;;11.10;49.10;;;;;;5050951;28;20033;-72
2021/03/30 01:57:15;;;;;;;8.40;5.10;;;11.00;49.40;;;;;;5051337;28;20035;-72
2021/03/30 01:59:44;;;;;;;8.65;4.50;;;11.00;49.30;;;;;;5051145;28;20036;-71
2021/03/30 02:02:10;;;;;;;9.05;4.60;;;11.00;49.40;;;;;;5052340;28;20017;-72
2021/03/30 02:04:38;;;;;;;6.22;4.03;;;11.00;49.20;;;;;;5052432;28;20017;-71
2021/03/30 02:07:05;;;;;;;12.77;4.00;;;11.00;49.30;;;;;;5051182;28;20390;-72
2021/03/30 02:09:36;;;;;;;7.07;3.83;;;10.90;49.30;;;;;;5052588;28;20445;-71
2021/03/30 02:12:14;;;;;;;9.27;3.80;;;10.90;49.30;;;;;;5052261;28;20025;-71
2021/03/30 02:14:41;;;;;;;7.15;3.75;;;10.90;49.40;;;;;;5050596;28;20371;-71
2021/03/30 02:17:31;;;;;;;7.32;3.83;;;10.90;49.50;;;;;;5052381;28;20057;-71
2021/03/30 02:20:10;;;;;;;10.38;4.43;;;10.80;49.90;;;;;;5052227;28;20441;-71
2021/03/30 02:22:50;;;;;;;10.43;4.13;;;10.80;50.10;;;;;;5050673;28;20029;-71
2021/03/30 02:25:17;;;;;;;7.20;3.88;;;10.80;50.20;;;;;;5052185;28;20025;-71
2021/03/30 02:27:45;;;;;;;7.20;3.63;;;10.70;50.00;;;;;;5052078;28;20026;-72
2021/03/30 02:30:13;;;;;;;11.13;3.70;;;10.70;49.90;;;;;;5050873;28;20025;-71
2021/03/30 02:32:42;;;;;;;9.38;4.32;;;10.70;49.90;;;;;;5051920;28;20104;-71
2021/03/30 02:35:09;;;;;;;9.10;3.72;;;10.60;50.10;;;;;;5051981;28;20031;-71
2021/03/30 02:37:36;;;;;;;8.43;4.15;;;10.60;50.20;;;;;;5051017;28;20368;-71
2021/03/30 02:40:06;;;;;;;6.22;3.38;;;10.60;50.20;;;;;;5052096;28;20033;-71
2021/03/30 02:42:33;;;;;;;5.32;3.85;;;10.50;50.20;;;;;;5051677;28;20063;-71
2021/03/30 02:45:01;;;;;;;9.88;4.18;;;10.50;50.30;;;;;;5052093;28;20017;-71
2021/03/30 02:47:27;;;;;;;8.30;3.65;;;10.50;50.50;;;;;;5051932;28;20044;-71
2021/03/30 02:49:54;;;;;;;11.98;3.70;;;10.50;50.40;;;;;;5050412;28;20036;-72
2021/03/30 02:52:22;;;;;;;4.93;3.20;;;10.50;50.40;;;;;;5052130;28;20021;-71
2021/03/30 02:54:48;;;;;;;7.32;4.40;;;10.50;50.30;;;;;;5051904;28;20021;-72
2021/03/30 02:57:15;;;;;;;9.07;4.10;;;10.40;50.50;;;;;;5051891;28;20163;-71
2021/03/30 02:59:42;;;;;;;7.10;3.67;;;10.40;50.50;;;;;;5051915;28;20426;-71
2021/03/30 03:02:11;;;;;;;7.10;4.13;;;10.40;50.50;;;;;;5051819;28;20036;-71
2021/03/30 03:04:37;;;;;;;6.20;3.80;;;10.40;50.50;;;;;;5050480;28;20432;-71
2021/03/30 03:07:04;;;;;;;7.93;4.28;;;10.30;50.70;;;;;;5051768;28;20013;-71
2021/03/30 03:09:32;;;;;;;10.18;4.38;;;10.30;51.40;;;;;;5051663;28;20017;-71
2021/03/30 03:11:58;;;;;;;5.95;3.28;;;10.30;51.30;;;;;;5051713;28;20025;-71
2021/03/30 03:14:25;;;;;;;7.22;3.47;;;10.30;51.10;;;;;;5051842;28;20025;-71
2021/03/30 03:16:51;;;;;;;8.57;3.95;;;10.30;51.10;;;;;;5051626;28;20031;-71
2021/03/30 03:19:17;;;;;;;11.13;3.80;;;10.30;51.10;;;;;;5051506;28;20036;-71
2021/03/30 03:21:44;;;;;;;9.38;4.68;;;10.20;51.30;;;;;;5051250;28;20029;-71
2021/03/30 03:24:11;;;;;;;8.38;3.47;;;10.20;51.60;;;;;;5050976;28;20116;-71
2021/03/30 03:26:40;;;;;;;7.25;4.25;;;10.20;51.60;;;;;;5055254;28;20025;-71
2021/03/30 03:29:17;;;;;;;8.07;4.20;;;10.20;51.50;;;;;;5055157;28;20653;-72
2021/03/30 03:31:43;;;;;;;9.18;4.38;;;10.20;51.70;;;;;;5054986;28;20143;-71
2021/03/30 03:34:11;;;;;;;6.10;3.53;;;10.20;51.40;;;;;;5053747;28;20029;-71
2021/03/30 03:36:49;;;;;;;8.32;4.38;;;10.20;51.60;;;;;;5054920;28;20425;-72
2021/03/30 03:39:20;;;;;;;7.93;4.45;;;10.10;51.90;;;;;;5054950;28;20032;-71
2021/03/30 03:41:46;;;;;;;6.07;4.43;;;10.10;52.00;;;;;;5054600;28;20025;-72
2021/03/30 03:44:13;;;;;;;8.90;4.57;;;10.10;51.70;;;;;;5070599;28;20390;-72
2021/03/30 03:46:39;;;;;;;8.05;4.40;;;10.10;52.10;;;;;;5054772;28;20418;-71
2021/03/30 03:49:06;;;;;;;11.77;6.03;;;10.10;51.90;;;;;;5054682;28;20013;-72
2021/03/30 03:52:03;;;;;;;9.05;5.70;;;10.10;51.90;;;;;;5054040;28;20048;-71
2021/03/30 03:54:31;;;;;;;8.70;4.25;;;10.00;51.90;;;;;;5055214;28;20037;-71
2021/03/30 03:57:04;;;;;;;9.73;5.30;;;10.00;51.70;;;;;;5054163;28;20029;-71
2021/03/30 03:59:33;;;;;;;6.28;4.00;;;10.00;51.90;;;;;;5055501;28;20021;-71
2021/03/30 04:02:15;;;;;;;6.18;4.10;;;10.00;51.90;;;;;;5055162;28;20040;-71
2021/03/30 04:05:11;;;;;;;7.15;4.07;;;10.00;52.00;;;;;;5055488;28;20025;-71
2021/03/30 04:07:51;;;;;;;9.25;4.03;;;10.00;52.20;;;;;;5054682;28;20025;-71
2021/03/30 04:10:20;;;;;;;5.93;3.90;;;10.00;52.00;;;;;;5055130;28;20496;-72
2021/03/30 04:12:46;;;;;;;8.57;4.32;;;9.90;52.00;;;;;;5053942;28;20021;-71
2021/03/30 04:15:13;;;;;;;10.18;5.13;;;9.90;52.20;;;;;;5053689;28;20033;-71
2021/03/30 04:17:41;;;;;;;6.32;3.90;;;9.90;52.40;;;;;;5053804;28;20025;-71
2021/03/30 04:20:15;;;;;;;13.32;5.30;;;9.90;52.20;;;;;;5054987;28;20052;-71
2021/03/30 04:22:42;;;;;;;6.78;4.03;;;9.90;52.50;;;;;;5055057;28;20032;-71
2021/03/30 04:25:09;;;;;;;9.88;4.55;;;9.90;52.20;;;;;;5054814;28;20363;-71
2021/03/30 04:27:34;;;;;;;10.27;5.75;;;9.80;52.10;;;;;;5053538;28;20150;-71
2021/03/30 04:30:00;;;;;;;11.93;5.82;;;9.80;52.50;;;;;;5054774;28;20100;-71
2021/03/30 04:32:26;;;;;;;7.63;4.50;;;9.80;52.50;;;;;;5054662;28;20028;-71
2021/03/30 04:34:52;;;;;;;9.77;4.50;;;9.80;52.40;;;;;;5054730;28;20433;-71
2021/03/30 04:37:18;;;;;;;9.82;4.65;;;9.80;52.40;;;;;;5052792;28;20041;-72
2021/03/30 04:39:46;;;;;;;10.05;4.57;;;9.70;52.90;;;;;;5054854;28;20017;-71
2021/03/30 04:42:12;;;;;;;10.45;5.10;;;9.70;52.40;;;;;;5058093;28;20487;-72
2021/03/30 04:44:38;;;;;;;9.82;4.75;;;9.70;52.50;;;;;;5074597;28;20028;-72
2021/03/30 04:47:04;;;;;;;17.52;4.93;;;9.70;52.50;;;;;;5074706;28;20087;-71
2021/03/30 04:49:30;;;;;;;11.77;5.22;;;9.70;52.50;;;;;;5074349;28;20046;-72
2021/03/30 04:51:55;;;;;;;12.60;5.38;;;9.70;52.60;;;;;;5057458;28;20521;-71
2021/03/30 04:54:22;;;;;;;9.93;4.93;;;9.60;52.60;;;;;;5054427;28;20029;-71
2021/03/30 04:56:47;;;;;;;9.13;4.93;;;9.60;52.60;;;;;;5054334;28;20032;-71
2021/03/30 04:59:13;;;;;;;6.50;4.40;;;9.60;52.70;;;;;;5054369;28;20121;-72
2021/03/30 05:01:39;;;;;;;9.02;5.43;;;9.60;52.70;;;;;;5052828;28;20033;-72
2021/03/30 05:04:05;;;;;;;12.38;5.18;;;9.60;52.80;;;;;;5052912;28;20024;-72
2021/03/30 05:06:31;;;;;;;14.90;5.97;;;9.60;52.90;;;;;;5052904;28;20078;-71
2021/03/30 05:08:57;;;;;;;7.60;4.93;;;9.60;53.00;;;;;;5054213;28;20017;-71
2021/03/30 05:11:23;;;;;;;7.00;4.20;;;9.60;53.00;;;;;;5054088;28;20028;-72
2021/03/30 05:13:49;;;;;;;10.55;4.97;;;9.60;53.00;;;;;;5053769;28;20028;-72
2021/03/30 05:16:14;;;;;;;10.60;4.43;;;9.60;53.10;;;;;;5053986;28;20021;-72
2021/03/30 05:18:41;;;;;;;7.13;4.38;;;9.60;53.10;;;;;;5053707;28;20024;-72
2021/03/30 05:21:07;;;;;;;7.65;4.15;;;9.60;53.30;;;;;;5053964;28;20021;-72
2021/03/30 05:23:33;;;;;;;8.90;4.47;;;9.60;53.40;;;;;;5054022;28;20036;-72
2021/03/30 05:25:59;;;;;;;11.15;4.93;;;9.60;53.70;;;;;;5053827;28;20467;-72
2021/03/30 05:28:25;;;;;;;12.73;5.43;;;9.70;53.70;;;;;;5053868;28;20032;-72
2021/03/30 05:30:51;;;;;;;11.88;5.25;;;9.70;53.80;;;;;;5053791;28;20386;-72
2021/03/30 05:33:17;;;;;;;8.20;4.95;;;9.80;54.10;;;;;;5053695;28;20398;-72
2021/03/30 05:35:43;;;;;;;12.90;5.70;;;9.80;54.30;;;;;;5053582;28;20031;-72
2021/03/30 05:38:09;;;;;;;10.77;5.38;;;9.90;54.60;;;;;;5053677;28;20025;-72
2021/03/30 05:40:34;;;;;;;16.20;5.90;;;10.00;54.50;;;;;;5053817;28;20032;-72
2021/03/30 05:43:00;;;;;;;16.27;5.05;;;10.10;54.60;;;;;;5053226;28;20028;-72
2021/03/30 05:45:26;;;;;;;8.82;4.55;;;10.10;54.60;;;;;;5053597;28;20446;-72
2021/03/30 05:47:54;;;;;;;9.80;5.15;;;10.20;54.30;;;;;;5052494;28;20017;-72
2021/03/30 05:50:22;;;;;;;11.45;5.07;;;10.30;54.50;;;;;;5053048;28;20047;-72
2021/03/30 05:53:05;;;;;;;11.20;5.35;;;10.40;54.40;;;;;;5053578;28;20080;-72
2021/03/30 05:55:40;;;;;;;10.20;4.80;;;10.40;54.50;;;;;;5052054;28;20128;-72
2021/03/30 05:58:07;;;;;;;15.25;4.53;;;10.50;54.30;;;;;;5053112;28;20029;-73
2021/03/30 06:00:47;;;;;;;9.18;4.97;;;10.60;54.10;;;;;;5052700;28;20546;-74
2021/03/30 06:03:28;;;;;;;16.85;6.90;;;10.70;54.10;;;;;;5051560;28;20033;-73
2021/03/30 06:05:58;;;;;;;13.00;6.07;;;10.80;53.90;;;;;;5052909;28;20486;-73
2021/03/30 06:08:26;;;;;;;8.68;4.63;;;10.80;53.70;;;;;;5052908;28;20374;-73
2021/03/30 06:10:54;;;;;;;12.68;5.57;;;10.90;53.50;;;;;;5052934;28;20056;-73
2021/03/30 06:13:51;;;;;;;10.80;5.78;;;11.00;53.50;;;;;;5052955;28;20017;-73
2021/03/30 06:16:38;;;;;;;9.48;4.55;;;11.00;53.30;;;;;;5052924;28;20029;-73
2021/03/30 06:19:04;;;;;;;13.75;4.80;;;11.10;53.20;;;;;;5052820;28;20492;-73
2021/03/30 06:21:31;;;;;;;8.02;4.72;;;11.10;53.00;;;;;;5052784;28;20048;-73
2021/03/30 06:23:59;;;;;;;7.82;4.47;;;11.20;52.90;;;;;;5051608;28;20497;-74
2021/03/30 06:26:26;;;;;;;8.05;5.00;;;11.20;52.90;;;;;;5052776;28;20047;-73
2021/03/30 06:28:53;;;;;;;10.05;5.07;;;11.30;52.90;;;;;;5052707;28;20021;-73
2021/03/30 06:31:20;;;;;;;9.02;5.18;;;11.30;52.70;;;;;;5052792;28;20544;-74
2021/03/30 06:33:53;;;;;;;11.32;4.47;;;11.40;52.70;;;;;;5052683;28;20025;-73
2021/03/30 06:36:19;;;;;;;11.68;5.18;;;11.40;53.20;;;;;;5052771;28;20053;-73
2021/03/30 06:38:55;;;;;;;11.52;4.80;;;11.50;52.60;;;;;;5051379;28;20055;-73
2021/03/30 06:41:31;;;;;;;7.90;3.78;;;11.50;52.60;;;;;;5051205;28;20079;-72
2021/03/30 06:47:05;;;;;;;16.27;6.00;;;11.60;52.40;;;;;;5052554;28;20018;-73
2021/03/30 06:49:36;;;;;;;19.02;5.78;;;11.70;52.40;;;;;;5052779;28;20493;-73
2021/03/30 06:52:19;;;;;;;33.67;8.13;;;11.80;52.30;;;;;;5063551;28;20125;-73
2021/03/30 06:54:55;;;;;;;12.32;5.72;;;11.80;52.30;;;;;;5068925;28;20032;-73
2021/03/30 06:57:46;;;;;;;16.25;6.18;;;11.90;52.20;;;;;;5061799;28;20489;-73
2021/03/30 07:00:15;;;;;;;11.23;5.43;;;11.90;52.00;;;;;;5073502;28;20501;-73
2021/03/30 07:02:52;;;;;;;23.05;6.50;;;12.00;52.00;;;;;;5055121;28;20418;-73
2021/03/30 07:05:21;;;;;;;22.15;6.85;;;12.10;52.00;;;;;;5056250;28;20021;-73
2021/03/30 07:07:51;;;;;;;30.08;7.65;;;12.20;51.90;;;;;;5055069;28;20025;-73
2021/03/30 07:10:18;;;;;;;22.60;6.90;;;12.20;51.90;;;;;;5056302;28;20390;-73
2021/03/30 07:12:46;;;;;;;24.60;6.53;;;12.30;51.90;;;;;;5058426;28;20508;-73
2021/03/30 07:15:13;;;;;;;17.90;7.80;;;12.40;51.80;;;;;;5076149;28;20055;-73
2021/03/30 07:17:42;;;;;;;31.90;8.23;;;12.40;51.80;;;;;;5055304;28;20421;-73
2021/03/30 07:20:10;;;;;;;29.05;9.32;;;12.50;51.70;;;;;;5055971;28;20024;-73
2021/03/30 07:22:37;;;;;;;27.02;9.63;;;12.60;51.60;;;;;;5054694;28;20036;-73
2021/03/30 07:25:05;;;;;;;28.00;9.27;;;12.70;51.60;;;;;;5055829;28;20020;-73
2021/03/30 07:27:45;;;;;;;20.70;8.63;;;12.80;51.50;;;;;;5054579;28;20416;-73
2021/03/30 07:30:14;;;;;;;27.50;8.38;;;12.80;51.40;;;;;;5055827;28;20501;-73
2021/03/30 07:33:04;;;;;;;21.20;8.82;;;12.90;51.30;;;;;;5054328;28;20056;-73
2021/03/30 07:35:33;;;;;;;15.80;8.02;;;13.00;51.20;;;;;;5055521;28;20139;-73
2021/03/30 07:38:18;;;;;;;20.40;10.05;;;13.10;51.10;;;;;;5055523;28;20044;-74
2021/03/30 07:40:45;;;;;;;30.65;9.82;;;13.20;51.00;;;;;;5054232;28;20025;-74
2021/03/30 07:43:21;;;;;;;25.52;11.25;;;13.30;50.90;;;;;;5055385;28;20029;-74
2021/03/30 07:45:48;;;;;;;15.02;8.23;;;13.30;50.70;;;;;;5070829;28;20102;-73
2021/03/30 07:48:15;;;;;;;23.45;11.70;;;13.40;50.60;;;;;;5074537;28;20090;-74
2021/03/30 07:50:55;;;;;;;21.73;9.88;;;13.50;50.50;;;;;;5087723;28;20528;-73
2021/03/30 07:53:55;;;;;;;26.48;12.50;;;13.60;50.40;;;;;;5095600;28;20028;-74
2021/03/30 07:56:24;;;;;;;22.45;10.95;;;13.70;50.20;;;;;;5095633;28;20059;-74
2021/03/30 07:58:51;;;;;;;25.08;12.48;;;13.70;50.20;;;;;;5095456;28;20028;-72
2021/03/30 08:01:19;;;;;;;31.55;13.15;;;13.80;50.10;;;;;;5075998;28;20020;-72
2021/03/30 08:03:47;;;;;;;22.50;9.30;;;13.90;49.90;;;;;;5057510;28;20021;-72
2021/03/30 08:06:23;;;;;;;25.42;11.77;;;14.00;49.90;;;;;;5054939;28;20024;-71
2021/03/30 08:08:52;;;;;;;23.38;12.20;;;14.10;49.80;;;;;;5059743;28;20079;-72
2021/03/30 08:11:52;;;;;;;31.98;13.57;;;14.10;49.60;;;;;;5073873;28;20020;-72
2021/03/30 08:14:41;;;;;;;23.70;10.93;;;14.20;49.40;;;;;;5058180;28;20028;-72
2021/03/30 08:17:13;;;;;;;31.10;12.52;;;14.30;49.30;;;;;;5053157;28;20025;-72
2021/03/30 08:20:00;;;;;;;35.25;13.85;;;14.40;49.00;;;;;;5059921;28;20056;-73
2021/03/30 08:22:29;;;;;;;29.27;12.40;;;14.50;49.00;;;;;;5074549;28;20020;-73
2021/03/30 08:24:56;;;;;;;27.75;12.63;;;14.60;48.70;;;;;;5061188;28;20417;-73
2021/03/30 08:27:37;;;;;;;25.83;11.80;;;14.60;48.70;;;;;;5054802;28;20035;-73
2021/03/30 08:30:20;;;;;;;28.35;12.02;;;14.70;48.50;;;;;;5054554;28;20024;-73
2021/03/30 08:32:48;;;;;;;16.77;10.45;;;14.80;48.00;;;;;;5054533;28;20025;-73
2021/03/30 08:35:38;;;;;;;22.60;12.20;;;14.90;48.20;;;;;;5054403;28;20453;-73
2021/03/30 08:38:05;;;;;;;27.10;13.43;;;15.00;47.70;;;;;;5069626;28;20478;-73
2021/03/30 08:40:34;;;;;;;22.48;12.20;;;15.10;47.50;;;;;;5054137;28;20471;-73
2021/03/30 08:43:00;;;;;;;20.40;11.07;;;15.10;47.30;;;;;;5054041;28;20083;-73
2021/03/30 08:45:26;;;;;;;20.77;10.77;;;15.20;47.30;;;;;;5054081;28;20052;-73
2021/03/30 08:48:10;;;;;;;18.73;9.98;;;15.30;46.70;;;;;;5054454;28;20083;-73
2021/03/30 08:50:36;;;;;;;26.15;10.95;;;15.40;47.30;;;;;;5053816;28;20041;-73
2021/03/30 08:53:18;;;;;;;20.55;10.13;;;15.50;46.70;;;;;;5068398;28;20036;-73
2021/03/30 08:55:43;;;;;;;18.98;10.13;;;15.60;46.50;;;;;;5067985;28;20025;-73
2021/03/30 08:58:11;;;;;;;21.20;10.43;;;15.70;46.40;;;;;;5058731;28;20481;-73
2021/03/30 09:00:36;;;;;;;18.75;8.48;;;15.80;46.50;;;;;;5070080;28;20025;-73
2021/03/30 09:03:05;;;;;;;22.60;8.75;;;15.90;46.10;;;;;;5072695;28;20047;-73
2021/03/30 09:05:41;;;;;;;13.93;7.05;;;15.90;45.70;;;;;;5073548;28;20021;-73
2021/03/30 09:08:09;;;;;;;21.02;8.35;;;16.00;45.60;;;;;;5069379;28;20035;-73
2021/03/30 09:10:35;;;;;;;13.65;8.27;;;16.20;45.50;;;;;;5054956;28;20031;-73
2021/03/30 09:13:15;;;;;;;16.55;9.70;;;16.20;45.50;;;;;;5067860;28;20070;-73
2021/03/30 09:15:43;;;;;;;23.48;11.77;;;16.40;45.50;;;;;;5062732;28;20200;-73
2021/03/30 09:18:10;;;;;;;22.75;11.52;;;16.50;45.60;;;;;;5073494;28;20048;-73
2021/03/30 09:20:37;;;;;;;16.55;10.38;;;16.60;45.50;;;;;;5073576;28;20111;-73
2021/03/30 09:23:23;;;;;;;13.57;7.88;;;16.70;45.20;;;;;;5067191;28;20039;-73
2021/03/30 09:25:52;;;;;;;17.33;7.95;;;16.70;45.00;;;;;;5058287;28;20024;-73
2021/03/30 09:28:24;;;;;;;25.75;9.60;;;16.80;44.90;;;;;;5055296;28;20025;-73
2021/03/30 09:30:50;;;;;;;13.43;8.02;;;16.90;44.90;;;;;;5073456;28;20024;-73
2021/03/30 09:33:16;;;;;;;19.75;8.68;;;17.00;44.90;;;;;;5071969;28;20033;-74
2021/03/30 09:35:43;;;;;;;19.30;7.82;;;17.10;44.80;;;;;;5073289;28;20029;-73
2021/03/30 09:38:09;;;;;;;16.83;7.45;;;17.20;44.50;;;;;;5072841;28;20401;-74
2021/03/30 09:40:40;;;;;;;14.63;7.90;;;17.20;44.20;;;;;;5055531;28;20463;-74
2021/03/30 09:43:19;;;;;;;24.90;9.30;;;17.30;43.90;;;;;;5067911;28;20024;-74
2021/03/30 09:45:45;;;;;;;27.75;9.93;;;17.40;43.80;;;;;;5069920;28;20017;-73
2021/03/30 09:48:16;;;;;;;21.20;9.07;;;17.50;43.80;;;;;;5053090;28;20021;-73
2021/03/30 09:50:48;;;;;;;24.75;8.55;;;17.60;43.50;;;;;;5051676;28;20052;-73
2021/03/30 09:53:14;;;;;;;15.48;7.30;;;17.70;43.30;;;;;;5051656;28;20024;-73
2021/03/30 09:55:47;;;;;;;22.80;8.38;;;17.80;43.20;;;;;;5053308;28;20029;-75
2021/03/30 09:58:19;;;;;;;19.00;10.18;;;17.90;42.50;;;;;;5058589;28;20025;-74
2021/03/30 10:00:50;;;;;;;15.20;7.72;;;18.00;42.60;;;;;;5068971;28;20564;-74
2021/03/30 10:03:17;;;;;;;23.45;10.52;;;18.10;41.70;;;;;;5051527;28;20029;-74
2021/03/30 10:05:44;;;;;;;14.98;7.45;;;18.10;41.70;;;;;;5055915;28;20016;-74
2021/03/30 10:08:23;;;;;;;14.75;7.90;;;18.20;41.20;;;;;;5064939;28;20017;-74
2021/03/30 10:10:51;;;;;;;11.57;7.25;;;18.30;40.40;;;;;;5070112;28;20016;-73
2021/03/30 10:13:29;;;;;;;15.02;7.25;;;18.40;39.70;;;;;;5051905;28;20426;-73
2021/03/30 10:15:58;;;;;;;19.00;7.95;;;18.50;39.70;;;;;;5052807;28;20390;-73
2021/03/30 10:18:26;;;;;;;13.98;7.05;;;18.50;38.40;;;;;;5051441;28;20021;-73
2021/03/30 10:21:06;;;;;;;11.23;6.63;;;18.60;38.50;;;;;;5053672;28;20021;-73
2021/03/30 10:23:33;;;;;;;12.63;6.93;;;18.70;38.10;;;;;;5066339;28;20031;-73
2021/03/30 10:26:21;;;;;;;13.00;7.65;;;18.70;37.50;;;;;;5072359;28;20166;-73
2021/03/30 10:29:05;;;;;;;12.85;7.55;;;18.80;37.50;;;;;;5072158;28;20027;-74
2021/03/30 10:34:27;;;;;;;17.15;8.40;;;18.90;37.30;;;;;;5073744;28;20032;-73
2021/03/30 10:36:56;;;;;;;20.10;7.47;;;19.00;37.70;;;;;;5073763;28;20426;-74
2021/03/30 10:39:33;;;;;;;18.33;7.80;;;19.10;37.10;;;;;;5076643;28;20472;-73
2021/03/30 10:42:02;;;;;;;16.50;8.52;;;19.20;36.70;;;;;;5076316;28;20025;-73
2021/03/30 10:44:57;;;;;;;14.30;8.80;;;19.30;36.20;;;;;;5073401;28;20386;-73
2021/03/30 10:47:28;;;;;;;13.65;8.18;;;19.40;36.90;;;;;;5056715;28;20017;-73
2021/03/30 10:49:55;;;;;;;14.40;7.90;;;19.50;36.10;;;;;;5056482;28;20534;-73
2021/03/30 10:52:24;;;;;;;17.48;8.23;;;19.50;36.20;;;;;;5056776;28;20033;-73
2021/03/30 10:54:53;;;;;;;13.00;8.68;;;19.60;35.70;;;;;;5057917;28;20397;-74
2021/03/30 10:57:21;;;;;;;14.15;8.02;;;19.70;35.30;;;;;;5055371;28;20079;-73
2021/03/30 10:59:47;;;;;;;12.20;8.20;;;19.70;35.10;;;;;;5056431;28;20033;-74
2021/03/30 11:02:14;;;;;;;13.15;8.20;;;19.80;34.30;;;;;;5056432;28;20036;-74
2021/03/30 11:04:41;;;;;;;13.13;8.05;;;19.90;34.50;;;;;;5055252;28;20049;-73
2021/03/30 11:07:09;;;;;;;23.63;10.48;;;20.00;34.70;;;;;;5059746;28;20033;-73
2021/03/30 11:09:36;;;;;;;16.33;8.43;;;20.10;34.80;;;;;;5056374;28;20029;-73
2021/03/30 11:12:03;;;;;;;13.90;8.90;;;20.10;33.80;;;;;;5055461;28;20446;-73
2021/03/30 11:14:28;;;;;;;15.30;8.45;;;20.20;33.20;;;;;;5056025;28;20117;-73
2021/03/30 11:16:54;;;;;;;17.90;8.43;;;20.20;33.10;;;;;;5056213;28;20107;-73
2021/03/30 11:19:20;;;;;;;13.82;7.50;;;20.30;33.10;;;;;;5055111;28;20028;-73
2021/03/30 11:21:46;;;;;;;15.25;8.05;;;20.40;33.20;;;;;;5054729;28;20025;-73
2021/03/30 11:24:19;;;;;;;14.07;8.73;;;20.50;31.80;;;;;;5054916;28;20017;-73
2021/03/30 11:26:50;;;;;;;14.38;8.55;;;20.60;32.20;;;;;;5056459;28;20025;-75
2021/03/30 11:34:19;;;;;;;15.30;8.10;;;20.70;31.10;;;;;;5059688;28;20065;-73
2021/03/30 11:36:46;;;;;;;11.10;7.43;;;20.80;30.70;;;;;;5058739;28;20029;-73
2021/03/30 11:39:13;;;;;;;11.95;6.90;;;20.80;30.90;;;;;;5075517;28;20024;-73
2021/03/30 11:41:39;;;;;;;11.30;6.78;;;20.90;31.00;;;;;;5068828;28;20039;-73
2021/03/30 11:44:05;;;;;;;12.82;7.03;;;21.00;31.20;;;;;;5074796;28;20020;-73
2021/03/30 11:46:30;;;;;;;13.32;7.25;;;21.00;30.50;;;;;;5074542;28;20099;-72
2021/03/30 11:48:57;;;;;;;11.52;6.72;;;21.10;30.10;;;;;;5074673;28;20095;-72
2021/03/30 11:51:23;;;;;;;9.93;5.88;;;21.20;29.80;;;;;;5060782;28;20495;-73
2021/03/30 11:53:49;;;;;;;13.65;6.05;;;21.20;30.30;;;;;;5054164;28;20021;-73
2021/03/30 11:56:16;;;;;;;8.55;5.28;;;21.30;29.60;;;;;;5054007;28;20045;-72
2021/03/30 11:58:41;;;;;;;15.52;6.45;;;21.40;29.50;;;;;;5052708;28;20097;-73
2021/03/30 12:01:07;;;;;;;9.00;5.10;;;21.50;29.20;;;;;;5054312;28;20025;-73
2021/03/30 12:03:39;;;;;;;9.05;5.40;;;21.50;29.10;;;;;;5054285;28;20105;-72
2021/03/30 12:06:06;;;;;;;11.35;5.05;;;21.50;27.90;;;;;;5053153;28;20028;-73
2021/03/30 12:08:33;;;;;;;8.38;4.65;;;21.60;27.80;;;;;;5061948;28;20021;-73
2021/03/30 12:10:59;;;;;;;8.95;4.60;;;21.70;28.30;;;;;;5052914;28;20163;-73
2021/03/30 12:13:25;;;;;;;9.15;4.18;;;21.70;28.50;;;;;;5062603;28;20032;-73
2021/03/30 12:15:51;;;;;;;10.90;4.85;;;21.80;28.20;;;;;;5073853;28;20410;-73
2021/03/30 12:18:17;;;;;;;21.63;4.80;;;21.80;27.90;;;;;;5071263;28;20134;-73
2021/03/30 12:20:43;;;;;;;12.15;4.90;;;21.90;27.50;;;;;;5054030;28;20032;-72
2021/03/30 12:23:09;;;;;;;14.07;4.93;;;21.90;27.50;;;;;;5054181;28;20021;-72
2021/03/30 12:25:34;;;;;;;7.50;4.55;;;22.00;27.60;;;;;;5052854;28;20083;-73
2021/03/30 12:28:00;;;;;;;12.07;5.35;;;22.00;27.30;;;;;;5054234;28;20508;-73
2021/03/30 12:30:26;;;;;;;15.55;5.18;;;22.10;26.80;;;;;;5057554;28;20501;-73
2021/03/30 12:32:51;;;;;;;10.77;4.90;;;22.10;26.30;;;;;;5063869;28;20028;-72
2021/03/30 12:35:18;;;;;;;10.57;4.85;;;22.20;26.60;;;;;;5057443;28;20033;-73
2021/03/30 12:37:44;;;;;;;9.13;4.47;;;22.20;26.80;;;;;;5070424;28;20082;-72
2021/03/30 12:40:11;;;;;;;10.00;5.03;;;22.30;26.20;;;;;;5071936;28;20447;-73
2021/03/30 12:42:37;;;;;;;10.07;4.55;;;22.30;26.10;;;;;;5060271;28;20025;-73
2021/03/30 12:45:04;;;;;;;5.60;3.67;;;22.30;26.40;;;;;;5053874;28;20065;-72
2021/03/30 12:47:29;;;;;;;7.65;3.67;;;22.40;26.80;;;;;;5053552;28;20028;-74
2021/03/30 12:49:55;;;;;;;6.82;4.05;;;22.40;25.60;;;;;;5053716;28;20441;-74
2021/03/30 12:52:21;;;;;;;8.77;4.43;;;22.50;26.10;;;;;;5057750;28;20065;-74
2021/03/30 12:54:51;;;;;;;7.10;4.28;;;22.50;25.90;;;;;;5052869;28;20100;-73
2021/03/30 12:57:16;;;;;;;7.60;3.67;;;22.60;25.90;;;;;;5055734;28;20070;-74
2021/03/30 12:59:43;;;;;;;7.82;3.95;;;22.60;25.90;;;;;;5073590;28;20024;-73
2021/03/30 13:02:10;;;;;;;7.25;3.90;;;22.60;25.80;;;;;;5062618;28;20025;-74
2021/03/30 13:04:38;;;;;;;5.60;3.33;;;22.70;25.40;;;;;;5071376;28;20017;-74
2021/03/30 13:07:04;;;;;;;13.43;3.65;;;22.70;25.90;;;;;;5071130;28;20023;-74